Brisbane - nearby METAR Reports

YBBN - Brisbane Intl Ar, Australia
Distance from station: NNE 12km
Updated: 17/12/2017 08:00
Partly cloudy
Partly cloudy
 Wind from E
Wind: E 7 km/h
Temperature: 27°C
Heat Index: 28°C
Dew Point: 18°C
Humidity: 58%
Barometer: 1016 hPa
Clouds: Partly cloudy
Visibility: 10 km
Cloud details: Few Clouds 823 m
Partly cloudy 975 m
2017/12/16 22:00 YBBN 162200Z 09004KT 040V120 9999 FEW027 SCT032 27/18 Q1016 FM2230 06010KT 9999 FEW035
YAMB - Amberley, Australia
Distance from station: WSW 41km
Updated: 17/12/2017 08:00
Partly cloudy
Partly cloudy
 Wind from E
Wind: E 11 km/h
Temperature: 27°C
Heat Index: 28°C
Dew Point: 19°C
Humidity: 62%
Barometer: 1016 hPa
Clouds: Partly cloudy
Visibility: 10 km
Cloud details: Partly cloudy 975 m
2017/12/16 22:00 YAMB 162200Z AUTO 09006KT 060V120 9999 // SCT032 27/19 Q1016
 
YBCG - Coolangatta Aws, Australia
Distance from station: SSE 86km
Updated: 17/12/2017 08:00
Partly cloudy
Partly cloudy
 Wind from NNE
Wind: NNE 9 km/h
Temperature: 26°C
Dew Point: 18°C
Humidity: 61%
Barometer: 1016 hPa
Clouds: Partly cloudy
Visibility: 10 km
Cloud details: Partly cloudy 823 m
2017/12/16 22:00 YBCG 162200Z AUTO 03005KT 9999 // SCT027 26/18 Q1016